sensor_id;sensor_type;location;lat;lon;timestamp;pressure;altitude;pressure_sealevel;temperature;humidity
11912;BME280;6016;41.928;25.556;2023-02-22T00:01:41;98922.09;;;11.31;56.10
11912;BME280;6016;41.928;25.556;2023-02-22T00:04:16;98913.13;;;11.23;56.26
11912;BME280;6016;41.928;25.556;2023-02-22T00:06:46;98910.94;;;11.19;56.23
11912;BME280;6016;41.928;25.556;2023-02-22T00:09:13;98875.53;;;10.93;56.70
11912;BME280;6016;41.928;25.556;2023-02-22T00:11:46;98899.66;;;10.98;56.82
11912;BME280;6016;41.928;25.556;2023-02-22T00:14:13;98918.31;;;11.15;56.93
11912;BME280;6016;41.928;25.556;2023-02-22T00:16:40;98749.59;;;10.11;57.44
11912;BME280;6016;41.928;25.556;2023-02-22T00:19:07;98919.84;;;11.18;57.87
11912;BME280;6016;41.928;25.556;2023-02-22T00:21:36;98882.97;;;10.98;57.21
11912;BME280;6016;41.928;25.556;2023-02-22T00:24:03;98924.22;;;11.27;57.22
11912;BME280;6016;41.928;25.556;2023-02-22T00:26:47;98917.44;;;11.24;56.45
11912;BME280;6016;41.928;25.556;2023-02-22T00:29:14;98919.53;;;11.21;57.49
11912;BME280;6016;41.928;25.556;2023-02-22T00:31:41;98924.28;;;11.17;57.11
11912;BME280;6016;41.928;25.556;2023-02-22T00:34:08;98898.38;;;11.03;56.91
11912;BME280;6016;41.928;25.556;2023-02-22T00:36:36;98913.47;;;11.10;57.36
11912;BME280;6016;41.928;25.556;2023-02-22T00:39:03;98915.06;;;11.03;57.46
11912;BME280;6016;41.928;25.556;2023-02-22T00:41:32;98913.41;;;11.02;57.52
11912;BME280;6016;41.928;25.556;2023-02-22T00:43:58;98855.78;;;10.69;56.94
11912;BME280;6016;41.928;25.556;2023-02-22T00:46:25;98915.50;;;10.98;57.37
11912;BME280;6016;41.928;25.556;2023-02-22T00:48:52;98881.28;;;10.79;56.90
11912;BME280;6016;41.928;25.556;2023-02-22T00:51:19;98901.38;;;10.90;58.40
11912;BME280;6016;41.928;25.556;2023-02-22T00:53:47;98880.66;;;10.67;56.86
11912;BME280;6016;41.928;25.556;2023-02-22T00:56:14;98901.69;;;10.49;57.82
11912;BME280;6016;41.928;25.556;2023-02-22T00:58:41;98904.44;;;10.57;58.26
11912;BME280;6016;41.928;25.556;2023-02-22T01:01:09;98907.88;;;10.58;58.53
11912;BME280;6016;41.928;25.556;2023-02-22T01:03:35;98917.19;;;10.62;57.94
11912;BME280;6016;41.928;25.556;2023-02-22T01:06:05;98886.03;;;10.27;57.79
11912;BME280;6016;41.928;25.556;2023-02-22T01:08:32;98919.84;;;10.52;57.27
11912;BME280;6016;41.928;25.556;2023-02-22T01:11:00;98915.72;;;10.49;57.37
11912;BME280;6016;41.928;25.556;2023-02-22T01:13:27;98893.53;;;10.32;57.58
11912;BME280;6016;41.928;25.556;2023-02-22T01:15:54;98914.31;;;10.45;57.87
11912;BME280;6016;41.928;25.556;2023-02-22T01:18:22;98910.31;;;10.41;58.54
11912;BME280;6016;41.928;25.556;2023-02-22T01:20:50;98855.69;;;10.13;58.41
11912;BME280;6016;41.928;25.556;2023-02-22T01:23:17;98908.91;;;10.27;58.35
11912;BME280;6016;41.928;25.556;2023-02-22T01:25:44;98898.50;;;10.35;57.57
11912;BME280;6016;41.928;25.556;2023-02-22T01:28:12;98902.09;;;10.44;58.29
11912;BME280;6016;41.928;25.556;2023-02-22T01:30:39;98915.16;;;10.46;57.96
11912;BME280;6016;41.928;25.556;2023-02-22T01:33:06;98828.72;;;9.82;57.91
11912;BME280;6016;41.928;25.556;2023-02-22T01:35:35;98911.53;;;10.47;57.54
11912;BME280;6016;41.928;25.556;2023-02-22T01:38:03;98917.63;;;10.47;59.01
11912;BME280;6016;41.928;25.556;2023-02-22T01:40:32;98842.41;;;10.05;58.00
11912;BME280;6016;41.928;25.556;2023-02-22T01:43:01;98916.66;;;10.48;58.13
11912;BME280;6016;41.928;25.556;2023-02-22T01:45:44;98916.94;;;10.45;57.23
11912;BME280;6016;41.928;25.556;2023-02-22T01:48:17;98924.72;;;10.37;56.80
11912;BME280;6016;41.928;25.556;2023-02-22T01:50:47;98913.09;;;10.30;55.90
11912;BME280;6016;41.928;25.556;2023-02-22T01:53:19;98924.34;;;10.22;55.65
11912;BME280;6016;41.928;25.556;2023-02-22T01:55:48;98872.41;;;9.84;55.83
11912;BME280;6016;41.928;25.556;2023-02-22T01:58:17;98917.97;;;10.05;56.18
11912;BME280;6016;41.928;25.556;2023-02-22T02:00:46;98923.25;;;10.05;56.75
11912;BME280;6016;41.928;25.556;2023-02-22T02:03:19;98921.75;;;9.92;56.35
11912;BME280;6016;41.928;25.556;2023-02-22T02:05:49;98914.25;;;9.88;55.98
11912;BME280;6016;41.928;25.556;2023-02-22T02:08:23;98913.28;;;9.89;56.22
11912;BME280;6016;41.928;25.556;2023-02-22T02:10:54;98902.06;;;9.67;58.16
11912;BME280;6016;41.928;25.556;2023-02-22T02:13:21;98902.63;;;9.51;58.48
11912;BME280;6016;41.928;25.556;2023-02-22T02:15:49;98909.81;;;9.68;58.88
11912;BME280;6016;41.928;25.556;2023-02-22T02:18:19;98847.72;;;9.26;58.24
11912;BME280;6016;41.928;25.556;2023-02-22T02:20:57;98908.16;;;9.67;58.40
11912;BME280;6016;41.928;25.556;2023-02-22T02:26:59;98923.97;;;9.67;57.98
11912;BME280;6016;41.928;25.556;2023-02-22T02:29:53;98514.34;;;7.00;57.42
11912;BME280;6016;41.928;25.556;2023-02-22T02:32:34;98879.31;;;9.17;57.27
11912;BME280;6016;41.928;25.556;2023-02-22T02:35:05;98899.41;;;9.27;56.47
11912;BME280;6016;41.928;25.556;2023-02-22T02:37:44;98923.81;;;9.59;56.53
11912;BME280;6016;41.928;25.556;2023-02-22T02:40:20;98919.41;;;9.60;56.76
11912;BME280;6016;41.928;25.556;2023-02-22T02:42:55;98911.38;;;9.61;56.88
11912;BME280;6016;41.928;25.556;2023-02-22T02:45:29;98862.56;;;9.27;57.39
11912;BME280;6016;41.928;25.556;2023-02-22T02:48:04;98919.78;;;9.65;57.65
11912;BME280;6016;41.928;25.556;2023-02-22T02:50:35;98920.66;;;9.65;57.31
11912;BME280;6016;41.928;25.556;2023-02-22T02:53:07;98868.22;;;9.13;57.84
11912;BME280;6016;41.928;25.556;2023-02-22T02:55:36;98933.94;;;9.44;57.58
11912;BME280;6016;41.928;25.556;2023-02-22T02:58:04;98861.41;;;9.00;58.87
11912;BME280;6016;41.928;25.556;2023-02-22T03:00:35;98928.22;;;9.39;58.55
11912;BME280;6016;41.928;25.556;2023-02-22T03:03:23;98926.72;;;9.46;58.69
11912;BME280;6016;41.928;25.556;2023-02-22T03:06:03;98900.53;;;9.25;58.59
11912;BME280;6016;41.928;25.556;2023-02-22T03:08:40;98922.16;;;9.38;58.73
11912;BME280;6016;41.928;25.556;2023-02-22T03:11:11;98939.31;;;9.33;59.29
11912;BME280;6016;41.928;25.556;2023-02-22T03:13:50;98884.00;;;9.03;58.59
11912;BME280;6016;41.928;25.556;2023-02-22T03:16:28;98889.66;;;9.08;58.58
11912;BME280;6016;41.928;25.556;2023-02-22T03:19:04;98940.00;;;9.35;58.28
11912;BME280;6016;41.928;25.556;2023-02-22T03:21:38;98894.09;;;8.98;58.33
11912;BME280;6016;41.928;25.556;2023-02-22T03:24:13;98941.38;;;9.29;57.80
11912;BME280;6016;41.928;25.556;2023-02-22T03:26:47;98945.28;;;9.35;57.55
11912;BME280;6016;41.928;25.556;2023-02-22T03:29:17;98943.72;;;9.22;57.13
11912;BME280;6016;41.928;25.556;2023-02-22T03:31:50;98945.38;;;9.23;57.10
11912;BME280;6016;41.928;25.556;2023-02-22T03:34:21;98944.28;;;9.26;57.54
11912;BME280;6016;41.928;25.556;2023-02-22T03:36:53;98929.53;;;9.04;56.77
11912;BME280;6016;41.928;25.556;2023-02-22T03:39:23;98939.94;;;9.15;57.74
11912;BME280;6016;41.928;25.556;2023-02-22T03:41:57;98949.59;;;8.64;57.95
11912;BME280;6016;41.928;25.556;2023-02-22T03:44:31;98954.84;;;8.95;58.01
11912;BME280;6016;41.928;25.556;2023-02-22T03:47:05;98877.78;;;8.63;58.15
11912;BME280;6016;41.928;25.556;2023-02-22T03:49:36;98953.16;;;8.84;58.60
11912;BME280;6016;41.928;25.556;2023-02-22T03:52:06;98952.09;;;8.96;58.24
11912;BME280;6016;41.928;25.556;2023-02-22T03:54:33;98948.63;;;8.96;59.10
11912;BME280;6016;41.928;25.556;2023-02-22T03:57:04;98915.25;;;8.86;58.03
11912;BME280;6016;41.928;25.556;2023-02-22T03:59:32;98943.94;;;9.09;58.42
11912;BME280;6016;41.928;25.556;2023-02-22T04:01:59;98954.34;;;9.11;58.74
11912;BME280;6016;41.928;25.556;2023-02-22T04:04:26;98945.16;;;8.95;59.05
11912;BME280;6016;41.928;25.556;2023-02-22T04:06:54;98945.94;;;8.76;59.21
11912;BME280;6016;41.928;25.556;2023-02-22T04:09:21;98896.84;;;8.55;57.39
11912;BME280;6016;41.928;25.556;2023-02-22T04:11:48;98926.53;;;8.67;58.19
11912;BME280;6016;41.928;25.556;2023-02-22T04:14:15;98821.75;;;8.00;57.90
11912;BME280;6016;41.928;25.556;2023-02-22T04:16:42;98947.09;;;8.93;58.06
11912;BME280;6016;41.928;25.556;2023-02-22T04:19:09;98872.50;;;8.53;58.47
11912;BME280;6016;41.928;25.556;2023-02-22T04:21:36;98942.28;;;8.98;57.49
11912;BME280;6016;41.928;25.556;2023-02-22T04:24:05;98844.72;;;8.39;57.54
11912;BME280;6016;41.928;25.556;2023-02-22T04:26:32;98911.75;;;8.76;58.25
11912;BME280;6016;41.928;25.556;2023-02-22T04:28:58;98897.28;;;8.61;59.75
11912;BME280;6016;41.928;25.556;2023-02-22T04:31:25;98958.19;;;8.66;62.50
11912;BME280;6016;41.928;25.556;2023-02-22T04:33:52;98945.34;;;8.72;58.78
11912;BME280;6016;41.928;25.556;2023-02-22T04:36:19;98957.25;;;8.77;57.97
11912;BME280;6016;41.928;25.556;2023-02-22T04:38:46;98967.09;;;8.75;57.80
11912;BME280;6016;41.928;25.556;2023-02-22T04:41:16;98965.41;;;8.73;57.08
11912;BME280;6016;41.928;25.556;2023-02-22T04:43:43;98966.00;;;8.77;57.73
11912;BME280;6016;41.928;25.556;2023-02-22T04:46:10;98958.47;;;8.63;57.62
11912;BME280;6016;41.928;25.556;2023-02-22T04:48:38;98967.03;;;8.65;61.71
11912;BME280;6016;41.928;25.556;2023-02-22T04:51:05;98972.13;;;8.56;58.90
11912;BME280;6016;41.928;25.556;2023-02-22T04:53:33;98955.41;;;8.46;58.16
11912;BME280;6016;41.928;25.556;2023-02-22T04:55:59;98976.16;;;8.61;57.96
11912;BME280;6016;41.928;25.556;2023-02-22T04:58:28;98972.69;;;8.60;57.99
11912;BME280;6016;41.928;25.556;2023-02-22T05:00:56;98963.84;;;8.61;58.11
11912;BME280;6016;41.928;25.556;2023-02-22T05:03:22;98963.44;;;8.66;57.83
11912;BME280;6016;41.928;25.556;2023-02-22T05:05:50;98956.84;;;8.71;57.80
11912;BME280;6016;41.928;25.556;2023-02-22T05:08:17;98969.28;;;8.69;58.59
11912;BME280;6016;41.928;25.556;2023-02-22T05:10:44;98965.88;;;8.79;59.01
11912;BME280;6016;41.928;25.556;2023-02-22T05:13:11;98974.47;;;8.81;58.59
11912;BME280;6016;41.928;25.556;2023-02-22T05:15:39;98976.28;;;8.90;58.12
11912;BME280;6016;41.928;25.556;2023-02-22T05:18:06;98911.81;;;8.55;58.50
11912;BME280;6016;41.928;25.556;2023-02-22T05:20:34;98977.72;;;8.94;58.07
11912;BME280;6016;41.928;25.556;2023-02-22T05:23:02;98976.13;;;8.82;60.38
11912;BME280;6016;41.928;25.556;2023-02-22T05:25:30;98959.59;;;8.70;59.05
11912;BME280;6016;41.928;25.556;2023-02-22T05:27:59;98986.31;;;9.06;57.97
11912;BME280;6016;41.928;25.556;2023-02-22T05:30:29;98942.25;;;8.89;57.91
11912;BME280;6016;41.928;25.556;2023-02-22T05:32:57;98983.19;;;9.12;57.98
11912;BME280;6016;41.928;25.556;2023-02-22T05:35:26;98954.84;;;8.95;58.15
11912;BME280;6016;41.928;25.556;2023-02-22T05:37:53;98989.56;;;9.20;57.45
11912;BME280;6016;41.928;25.556;2023-02-22T05:40:21;98993.84;;;9.21;57.21
11912;BME280;6016;41.928;25.556;2023-02-22T05:42:49;98942.53;;;8.95;57.44
11912;BME280;6016;41.928;25.556;2023-02-22T05:45:18;98991.50;;;9.18;59.81
11912;BME280;6016;41.928;25.556;2023-02-22T05:47:45;98991.84;;;9.03;58.68
11912;BME280;6016;41.928;25.556;2023-02-22T05:50:14;99000.66;;;9.23;57.71
11912;BME280;6016;41.928;25.556;2023-02-22T05:52:42;98853.84;;;8.35;57.89
11912;BME280;6016;41.928;25.556;2023-02-22T05:55:10;98987.19;;;9.17;56.81
11912;BME280;6016;41.928;25.556;2023-02-22T05:57:39;99006.22;;;9.40;57.09
11912;BME280;6016;41.928;25.556;2023-02-22T06:00:07;99018.31;;;9.52;56.43
11912;BME280;6016;41.928;25.556;2023-02-22T06:02:35;99011.44;;;9.61;55.85
11912;BME280;6016;41.928;25.556;2023-02-22T06:05:02;99019.47;;;9.69;56.24
11912;BME280;6016;41.928;25.556;2023-02-22T06:07:30;99017.13;;;9.76;54.93
11912;BME280;6016;41.928;25.556;2023-02-22T06:09:59;99018.75;;;9.57;54.93
11912;BME280;6016;41.928;25.556;2023-02-22T06:12:26;99016.25;;;9.46;54.75
11912;BME280;6016;41.928;25.556;2023-02-22T06:14:53;99012.06;;;9.43;54.69
11912;BME280;6016;41.928;25.556;2023-02-22T06:17:20;99017.50;;;9.62;54.82
11912;BME280;6016;41.928;25.556;2023-02-22T06:19:46;99027.06;;;9.63;54.60
11912;BME280;6016;41.928;25.556;2023-02-22T06:22:15;99027.13;;;9.82;54.99
11912;BME280;6016;41.928;25.556;2023-02-22T06:24:44;98994.94;;;9.69;55.76
11912;BME280;6016;41.928;25.556;2023-02-22T06:27:11;99036.00;;;10.11;55.37
11912;BME280;6016;41.928;25.556;2023-02-22T06:29:38;99036.44;;;10.26;54.91
11912;BME280;6016;41.928;25.556;2023-02-22T06:32:05;99036.72;;;10.43;55.20
11912;BME280;6016;41.928;25.556;2023-02-22T06:34:32;98722.78;;;8.52;54.63
11912;BME280;6016;41.928;25.556;2023-02-22T06:36:58;98997.31;;;10.21;54.72
11912;BME280;6016;41.928;25.556;2023-02-22T06:39:26;99037.91;;;10.88;53.06
11912;BME280;6016;41.928;25.556;2023-02-22T06:41:54;99011.06;;;10.92;53.26
11912;BME280;6016;41.928;25.556;2023-02-22T06:44:22;99032.31;;;11.29;53.00
11912;BME280;6016;41.928;25.556;2023-02-22T06:46:49;99029.59;;;11.48;52.08
11912;BME280;6016;41.928;25.556;2023-02-22T06:49:17;99000.53;;;11.48;52.61
11912;BME280;6016;41.928;25.556;2023-02-22T06:51:44;99032.09;;;11.96;52.57
11912;BME280;6016;41.928;25.556;2023-02-22T06:54:12;99028.97;;;12.37;50.71
11912;BME280;6016;41.928;25.556;2023-02-22T06:56:39;99032.44;;;13.08;49.64
11912;BME280;6016;41.928;25.556;2023-02-22T06:59:07;99024.47;;;13.78;47.79
11912;BME280;6016;41.928;25.556;2023-02-22T07:01:34;98968.44;;;13.89;47.19
11912;BME280;6016;41.928;25.556;2023-02-22T07:04:01;98962.78;;;14.51;45.57
11912;BME280;6016;41.928;25.556;2023-02-22T07:06:28;99012.16;;;16.81;42.04
11912;BME280;6016;41.928;25.556;2023-02-22T07:08:55;99014.09;;;19.14;37.12
11912;BME280;6016;41.928;25.556;2023-02-22T07:11:21;99019.38;;;18.72;37.04
11912;BME280;6016;41.928;25.556;2023-02-22T07:13:48;98998.88;;;18.50;36.64
11912;BME280;6016;41.928;25.556;2023-02-22T07:16:16;99002.03;;;18.61;36.41
11912;BME280;6016;41.928;25.556;2023-02-22T07:18:43;99014.78;;;18.94;36.46
11912;BME280;6016;41.928;25.556;2023-02-22T07:21:10;99014.91;;;19.07;36.50
11912;BME280;6016;41.928;25.556;2023-02-22T07:23:37;99021.03;;;19.01;36.32
11912;BME280;6016;41.928;25.556;2023-02-22T07:26:04;99015.81;;;19.21;36.03
11912;BME280;6016;41.928;25.556;2023-02-22T07:28:31;99020.06;;;18.52;37.37
11912;BME280;6016;41.928;25.556;2023-02-22T07:30:57;99041.09;;;17.60;38.68
11912;BME280;6016;41.928;25.556;2023-02-22T07:33:27;99022.00;;;16.96;40.00
11912;BME280;6016;41.928;25.556;2023-02-22T07:35:53;99012.88;;;16.90;40.96
11912;BME280;6016;41.928;25.556;2023-02-22T07:38:20;98943.13;;;16.41;41.05
11912;BME280;6016;41.928;25.556;2023-02-22T07:40:47;98820.78;;;15.41;41.52
11912;BME280;6016;41.928;25.556;2023-02-22T07:43:16;99016.44;;;16.67;42.47
11912;BME280;6016;41.928;25.556;2023-02-22T07:45:44;99013.63;;;16.99;42.83
11912;BME280;6016;41.928;25.556;2023-02-22T07:48:12;99007.44;;;18.17;40.60
11912;BME280;6016;41.928;25.556;2023-02-22T07:50:40;98975.47;;;19.23;38.65
11912;BME280;6016;41.928;25.556;2023-02-22T07:53:11;98929.53;;;20.49;36.04
11912;BME280;6016;41.928;25.556;2023-02-22T07:55:38;98955.03;;;20.85;35.57
11912;BME280;6016;41.928;25.556;2023-02-22T07:58:07;98986.84;;;21.80;34.53
11912;BME280;6016;41.928;25.556;2023-02-22T08:00:36;98982.91;;;23.21;32.54
11912;BME280;6016;41.928;25.556;2023-02-22T08:03:06;98982.28;;;24.29;31.27
11912;BME280;6016;41.928;25.556;2023-02-22T08:05:35;98927.44;;;23.81;30.92
11912;BME280;6016;41.928;25.556;2023-02-22T08:08:05;98995.25;;;23.78;31.51
11912;BME280;6016;41.928;25.556;2023-02-22T08:10:32;98930.53;;;23.54;30.89
11912;BME280;6016;41.928;25.556;2023-02-22T08:13:00;98977.34;;;24.62;30.47
11912;BME280;6016;41.928;25.556;2023-02-22T08:15:29;98974.72;;;25.15;30.01
11912;BME280;6016;41.928;25.556;2023-02-22T08:17:57;98955.88;;;25.61;28.54
11912;BME280;6016;41.928;25.556;2023-02-22T08:20:25;98955.25;;;25.71;28.71
11912;BME280;6016;41.928;25.556;2023-02-22T08:22:53;98975.31;;;25.05;29.43
11912;BME280;6016;41.928;25.556;2023-02-22T08:25:23;98940.16;;;24.16;29.57
11912;BME280;6016;41.928;25.556;2023-02-22T08:27:55;98919.75;;;23.54;29.36
11912;BME280;6016;41.928;25.556;2023-02-22T08:30:26;98971.63;;;23.92;29.77
11912;BME280;6016;41.928;25.556;2023-02-22T08:32:53;98935.28;;;23.71;29.43
11912;BME280;6016;41.928;25.556;2023-02-22T08:35:20;98968.75;;;24.17;29.58
11912;BME280;6016;41.928;25.556;2023-02-22T08:37:49;98927.41;;;24.36;29.64
11912;BME280;6016;41.928;25.556;2023-02-22T08:40:19;98957.75;;;24.79;29.32
11912;BME280;6016;41.928;25.556;2023-02-22T08:42:48;98954.44;;;25.00;27.58
11912;BME280;6016;41.928;25.556;2023-02-22T08:45:15;98891.97;;;24.80;27.85
11912;BME280;6016;41.928;25.556;2023-02-22T08:47:42;98885.78;;;24.55;25.90
11912;BME280;6016;41.928;25.556;2023-02-22T08:50:15;98961.25;;;24.91;25.88
11912;BME280;6016;41.928;25.556;2023-02-22T08:52:42;98954.38;;;24.83;28.05
11912;BME280;6016;41.928;25.556;2023-02-22T08:55:09;98951.19;;;24.98;28.06
11912;BME280;6016;41.928;25.556;2023-02-22T08:57:39;98954.94;;;24.97;25.65
11912;BME280;6016;41.928;25.556;2023-02-22T09:00:09;98955.09;;;25.20;27.58
11912;BME280;6016;41.928;25.556;2023-02-22T09:02:36;98933.25;;;25.21;26.78
11912;BME280;6016;41.928;25.556;2023-02-22T09:05:02;98950.34;;;25.68;27.27
11912;BME280;6016;41.928;25.556;2023-02-22T09:07:30;98923.09;;;25.87;24.53
11912;BME280;6016;41.928;25.556;2023-02-22T09:09:57;98894.75;;;25.43;24.42
11912;BME280;6016;41.928;25.556;2023-02-22T09:12:23;98947.28;;;25.64;26.16
11912;BME280;6016;41.928;25.556;2023-02-22T09:14:50;98943.25;;;25.79;23.75
11912;BME280;6016;41.928;25.556;2023-02-22T09:17:19;98873.63;;;25.23;24.04
11912;BME280;6016;41.928;25.556;2023-02-22T09:19:45;98593.97;;;23.54;24.66
11912;BME280;6016;41.928;25.556;2023-02-22T09:22:12;98944.72;;;25.87;24.41
11912;BME280;6016;41.928;25.556;2023-02-22T09:24:39;98941.53;;;26.07;24.03
11912;BME280;6016;41.928;25.556;2023-02-22T09:27:07;98937.41;;;25.70;25.24
11912;BME280;6016;41.928;25.556;2023-02-22T09:29:36;98894.41;;;25.22;24.94
11912;BME280;6016;41.928;25.556;2023-02-22T09:32:04;98933.63;;;25.71;24.81
11912;BME280;6016;41.928;25.556;2023-02-22T09:34:32;98936.84;;;26.02;24.70
11912;BME280;6016;41.928;25.556;2023-02-22T09:37:00;98931.69;;;26.35;24.78
11912;BME280;6016;41.928;25.556;2023-02-22T09:39:26;98928.81;;;26.07;24.34
11912;BME280;6016;41.928;25.556;2023-02-22T09:42:01;98931.06;;;26.10;24.80
11912;BME280;6016;41.928;25.556;2023-02-22T09:44:35;98929.31;;;26.04;26.11
11912;BME280;6016;41.928;25.556;2023-02-22T09:47:04;98923.91;;;26.04;24.85
11912;BME280;6016;41.928;25.556;2023-02-22T09:49:39;98846.59;;;25.52;25.20
11912;BME280;6016;41.928;25.556;2023-02-22T09:52:15;98884.84;;;25.61;24.87
11912;BME280;6016;41.928;25.556;2023-02-22T09:54:46;98892.22;;;25.36;24.42
11912;BME280;6016;41.928;25.556;2023-02-22T09:57:20;98876.75;;;25.03;26.10
11912;BME280;6016;41.928;25.556;2023-02-22T09:59:56;98700.59;;;23.67;25.86
11912;BME280;6016;41.928;25.556;2023-02-22T10:02:28;98834.34;;;24.21;25.50
11912;BME280;6016;41.928;25.556;2023-02-22T10:05:07;98886.97;;;24.24;25.89
11912;BME280;6016;41.928;25.556;2023-02-22T10:07:40;98908.41;;;24.30;25.17
11912;BME280;6016;41.928;25.556;2023-02-22T10:10:14;98862.09;;;23.74;25.90
11912;BME280;6016;41.928;25.556;2023-02-22T10:12:49;98820.03;;;23.85;26.07
11912;BME280;6016;41.928;25.556;2023-02-22T10:15:34;98839.63;;;24.40;25.71
11912;BME280;6016;41.928;25.556;2023-02-22T10:18:19;98891.66;;;25.05;24.98
11912;BME280;6016;41.928;25.556;2023-02-22T10:20:56;98881.28;;;25.14;25.33
11912;BME280;6016;41.928;25.556;2023-02-22T10:23:32;98790.84;;;24.70;25.19
11912;BME280;6016;41.928;25.556;2023-02-22T10:26:13;98827.31;;;24.85;24.11
11912;BME280;6016;41.928;25.556;2023-02-22T10:28:53;98872.44;;;25.48;25.31
11912;BME280;6016;41.928;25.556;2023-02-22T10:31:24;98869.38;;;25.73;25.18
11912;BME280;6016;41.928;25.556;2023-02-22T10:33:55;98864.94;;;25.50;23.70
11912;BME280;6016;41.928;25.556;2023-02-22T10:36:25;98787.63;;;25.14;24.62
11912;BME280;6016;41.928;25.556;2023-02-22T10:38:55;98819.78;;;25.16;23.47
11912;BME280;6016;41.928;25.556;2023-02-22T10:41:27;98827.78;;;25.11;24.87
11912;BME280;6016;41.928;25.556;2023-02-22T10:43:55;98854.38;;;25.19;23.99
11912;BME280;6016;41.928;25.556;2023-02-22T10:46:23;98853.56;;;24.90;23.60
11912;BME280;6016;41.928;25.556;2023-02-22T10:48:53;98841.53;;;25.09;23.88
11912;BME280;6016;41.928;25.556;2023-02-22T10:51:22;98842.69;;;25.31;24.06
11912;BME280;6016;41.928;25.556;2023-02-22T10:53:57;98677.53;;;24.24;24.04
11912;BME280;6016;41.928;25.556;2023-02-22T10:56:26;98820.41;;;25.06;25.06
11912;BME280;6016;41.928;25.556;2023-02-22T10:58:55;98832.59;;;25.09;25.28
11912;BME280;6016;41.928;25.556;2023-02-22T11:01:34;98830.66;;;25.04;25.94
11912;BME280;6016;41.928;25.556;2023-02-22T11:04:07;98794.50;;;24.23;26.04
11912;BME280;6016;41.928;25.556;2023-02-22T11:06:48;98727.03;;;23.82;25.87
11912;BME280;6016;41.928;25.556;2023-02-22T11:09:58;98322.69;;;21.19;25.39
11912;BME280;6016;41.928;25.556;2023-02-22T11:12:33;98746.28;;;23.74;25.20
11912;BME280;6016;41.928;25.556;2023-02-22T11:15:22;98544.63;;;22.53;25.44
11912;BME280;6016;41.928;25.556;2023-02-22T11:17:54;98490.78;;;22.17;25.12
11912;BME280;6016;41.928;25.556;2023-02-22T11:20:23;98720.16;;;23.63;25.44
11912;BME280;6016;41.928;25.556;2023-02-22T11:22:56;98810.94;;;24.22;25.32
11912;BME280;6016;41.928;25.556;2023-02-22T11:25:29;98802.72;;;24.28;24.55
11912;BME280;6016;41.928;25.556;2023-02-22T11:28:06;98792.94;;;24.39;26.49
11912;BME280;6016;41.928;25.556;2023-02-22T11:30:39;98791.19;;;24.33;25.92
11912;BME280;6016;41.928;25.556;2023-02-22T11:33:16;98773.53;;;24.01;25.12
11912;BME280;6016;41.928;25.556;2023-02-22T11:35:50;98793.88;;;24.45;25.05
11912;BME280;6016;41.928;25.556;2023-02-22T11:38:20;98788.44;;;24.57;25.89
11912;BME280;6016;41.928;25.556;2023-02-22T11:41:05;98443.41;;;22.35;24.78
11912;BME280;6016;41.928;25.556;2023-02-22T11:43:38;98789.38;;;24.10;24.57
11912;BME280;6016;41.928;25.556;2023-02-22T11:46:08;98787.38;;;24.17;25.01
11912;BME280;6016;41.928;25.556;2023-02-22T11:48:40;98748.00;;;24.04;24.35
11912;BME280;6016;41.928;25.556;2023-02-22T11:51:15;98777.25;;;24.24;24.30
11912;BME280;6016;41.928;25.556;2023-02-22T11:53:52;98737.22;;;23.80;24.80
11912;BME280;6016;41.928;25.556;2023-02-22T11:56:27;98777.38;;;24.29;24.56
11912;BME280;6016;41.928;25.556;2023-02-22T11:58:59;98708.19;;;23.82;25.26
11912;BME280;6016;41.928;25.556;2023-02-22T12:01:37;98777.16;;;23.95;24.10
11912;BME280;6016;41.928;25.556;2023-02-22T12:04:38;98773.19;;;24.10;24.16
11912;BME280;6016;41.928;25.556;2023-02-22T12:07:20;98769.63;;;24.33;24.42
11912;BME280;6016;41.928;25.556;2023-02-22T12:09:53;98736.31;;;24.10;24.14
11912;BME280;6016;41.928;25.556;2023-02-22T12:12:36;98582.19;;;23.31;24.39
11912;BME280;6016;41.928;25.556;2023-02-22T12:15:10;98701.81;;;24.00;23.91
11912;BME280;6016;41.928;25.556;2023-02-22T12:17:50;98753.97;;;24.59;23.68
11912;BME280;6016;41.928;25.556;2023-02-22T12:20:23;98716.84;;;23.96;24.25
11912;BME280;6016;41.928;25.556;2023-02-22T12:22:58;98650.16;;;23.51;23.95
11912;BME280;6016;41.928;25.556;2023-02-22T12:25:34;98694.72;;;23.94;25.06
11912;BME280;6016;41.928;25.556;2023-02-22T12:28:13;98742.78;;;24.38;23.89
11912;BME280;6016;41.928;25.556;2023-02-22T12:30:44;98743.00;;;24.37;23.74
11912;BME280;6016;41.928;25.556;2023-02-22T12:33:15;98746.06;;;24.40;25.28
11912;BME280;6016;41.928;25.556;2023-02-22T12:35:49;98722.00;;;24.51;24.49
11912;BME280;6016;41.928;25.556;2023-02-22T12:38:22;98702.00;;;24.35;24.71
11912;BME280;6016;41.928;25.556;2023-02-22T12:40:55;98481.84;;;22.83;25.19
11912;BME280;6016;41.928;25.556;2023-02-22T12:43:30;98714.69;;;24.22;26.04
11912;BME280;6016;41.928;25.556;2023-02-22T12:46:02;98742.28;;;24.41;25.04
11912;BME280;6016;41.928;25.556;2023-02-22T12:48:37;98723.69;;;24.28;24.07
11912;BME280;6016;41.928;25.556;2023-02-22T12:51:18;98698.44;;;24.05;24.16
11912;BME280;6016;41.928;25.556;2023-02-22T12:53:55;98740.66;;;24.40;23.96
11912;BME280;6016;41.928;25.556;2023-02-22T12:56:30;98685.41;;;24.14;24.00
11912;BME280;6016;41.928;25.556;2023-02-22T12:59:09;98735.63;;;24.32;23.27
11912;BME280;6016;41.928;25.556;2023-02-22T13:01:49;98736.03;;;24.12;24.83
11912;BME280;6016;41.928;25.556;2023-02-22T13:04:19;98733.13;;;23.89;24.20
11912;BME280;6016;41.928;25.556;2023-02-22T13:07:01;98727.38;;;23.98;24.51
11912;BME280;6016;41.928;25.556;2023-02-22T13:09:48;98656.72;;;23.43;23.91
11912;BME280;6016;41.928;25.556;2023-02-22T13:12:23;98651.34;;;23.55;23.50
11912;BME280;6016;41.928;25.556;2023-02-22T13:15:05;98722.56;;;24.00;23.57
11912;BME280;6016;41.928;25.556;2023-02-22T13:17:41;98704.91;;;23.92;23.33
11912;BME280;6016;41.928;25.556;2023-02-22T13:20:28;98726.91;;;24.01;24.18
11912;BME280;6016;41.928;25.556;2023-02-22T13:23:01;98716.34;;;23.99;25.03
11912;BME280;6016;41.928;25.556;2023-02-22T13:25:36;98723.28;;;23.95;23.56
11912;BME280;6016;41.928;25.556;2023-02-22T13:28:20;98704.34;;;23.78;23.54